Time;durP1;ratioP1;P1;durP2;ratioP2;P2;SDS_P1;SDS_P2;PMS_P1;PMS_P2;Temp;Humidity;BMP_temperature;BMP_pressure;BME280_temperature;BME280_humidity;BME280_pressure;Samples;Min_cycle;Max_cycle;Signal;HPM_P1;HPM_P2
2022/07/31 00:00:11;;;;;;;4.58;4.17;;;;;;;22.33;63.00;99729.08;1835642;75;20991;-74
2022/07/31 00:02:40;;;;;;;4.85;3.67;;;;;;;22.30;62.64;99725.50;1818281;75;21052;-74
2022/07/31 00:05:09;;;;;;;8.38;4.60;;;;;;;22.27;62.75;99711.09;1797520;79;21026;-73
2022/07/31 00:07:35;;;;;;;6.03;4.20;;;;;;;22.25;62.76;99717.28;1803409;79;21033;-75
2022/07/31 00:10:03;;;;;;;5.72;3.70;;;;;;;22.23;62.82;99716.67;1804680;79;21744;-73
2022/07/31 00:12:31;;;;;;;5.05;4.30;;;;;;;22.21;62.93;99710.70;1803141;79;21062;-73
2022/07/31 00:14:57;;;;;;;6.85;4.03;;;;;;;22.18;62.92;99706.06;1799977;78;21035;-72
2022/07/31 00:17:23;;;;;;;8.28;3.75;;;;;;;22.15;62.88;99699.78;1778007;79;21011;-72
2022/07/31 00:19:50;;;;;;;7.08;4.55;;;;;;;22.13;63.21;99699.75;1775267;79;21061;-72
2022/07/31 00:22:17;;;;;;;7.40;3.62;;;;;;;22.10;62.88;99705.13;1790351;79;21233;-73
2022/07/31 00:24:43;;;;;;;8.45;4.05;;;;;;;22.08;62.93;99704.55;1784448;79;21065;-72
2022/07/31 00:27:10;;;;;;;6.47;3.80;;;;;;;22.06;63.09;99694.51;1806566;79;21004;-73
2022/07/31 00:29:37;;;;;;;5.62;3.45;;;;;;;22.04;62.91;99694.44;1805948;79;21212;-72
2022/07/31 00:32:05;;;;;;;3.87;3.58;;;;;;;22.02;63.05;99694.72;1784747;79;21088;-73
2022/07/31 00:34:31;;;;;;;4.30;3.90;;;;;;;22.00;62.84;99696.84;1789024;79;21865;-73
2022/07/31 00:36:58;;;;;;;5.30;4.00;;;;;;;21.97;62.86;99694.08;1799864;79;21044;-73
2022/07/31 00:39:24;;;;;;;5.30;3.90;;;;;;;21.95;62.99;99694.04;1803949;79;21238;-72
2022/07/31 00:41:53;;;;;;;4.47;3.30;;;;;;;21.93;63.13;99690.77;1804296;79;21104;-74
2022/07/31 00:44:20;;;;;;;5.15;3.77;;;;;;;21.90;63.42;99698.81;1790351;79;21544;-73
2022/07/31 00:46:46;;;;;;;4.40;3.83;;;;;;;21.88;63.63;99689.31;1795491;79;21098;-71
2022/07/31 00:49:13;;;;;;;5.80;4.20;;;;;;;21.83;63.58;99683.80;1803768;79;21525;-73
2022/07/31 00:51:40;;;;;;;4.62;3.55;;;;;;;21.80;63.75;99683.77;1805954;79;21033;-74
2022/07/31 00:54:07;;;;;;;4.55;3.45;;;;;;;21.76;63.65;99685.32;1798125;79;21021;-72
2022/07/31 00:56:34;;;;;;;3.80;3.50;;;;;;;21.73;63.61;99686.64;1793070;79;21005;-72
2022/07/31 00:59:01;;;;;;;4.67;3.72;;;;;;;21.69;63.72;99681.43;1801352;79;21131;-72
2022/07/31 01:01:28;;;;;;;3.90;3.60;;;;;;;21.67;63.84;99680.86;1787154;79;21017;-73
2022/07/31 01:03:54;;;;;;;5.42;4.28;;;;;;;21.65;63.86;99685.66;1810199;77;21048;-71
2022/07/31 01:06:20;;;;;;;4.72;3.67;;;;;;;21.63;63.77;99678.32;1802138;78;21477;-71
2022/07/31 01:08:47;;;;;;;4.25;3.77;;;;;;;21.61;63.81;99684.50;1810658;78;21055;-73
2022/07/31 01:11:22;;;;;;;5.53;4.00;;;;;;;21.60;63.83;99682.34;1787121;79;21126;-73
2022/07/31 01:13:56;;;;;;;5.72;3.55;;;;;;;21.59;63.82;99681.22;1745672;81;21453;-73
2022/07/31 01:16:29;;;;;;;7.65;3.80;;;;;;;21.57;63.75;99680.65;1814304;78;21064;-75
2022/07/31 01:18:56;;;;;;;4.05;3.37;;;;;;;21.54;64.06;99684.66;1810201;77;21051;-74
2022/07/31 01:21:34;;;;;;;3.83;3.52;;;;;;;21.51;64.22;99677.56;1821577;78;21069;-74
2022/07/31 01:24:21;;;;;;;5.37;3.87;;;;;;;21.48;64.25;99677.53;1807429;78;21450;-75
2022/07/31 01:26:58;;;;;;;4.92;3.60;;;;;;;21.44;64.25;99672.31;1826118;77;21031;-72
2022/07/31 01:29:28;;;;;;;5.28;3.27;;;;;;;21.43;64.18;99677.92;1821950;78;21090;-75
2022/07/31 01:32:07;;;;;;;3.50;3.20;;;;;;;21.40;64.14;99679.20;1817790;77;21055;-75
2022/07/31 01:35:00;;;;;;;4.62;3.37;;;;;;;21.38;64.20;99675.92;1802656;77;21005;-75
2022/07/31 01:37:49;;;;;;;4.42;3.55;;;;;;;21.34;64.09;99668.86;1797500;77;21222;-73
2022/07/31 01:40:29;;;;;;;6.20;3.60;;;;;;;21.32;64.14;99668.79;1806273;78;21110;-71
2022/07/31 01:43:02;;;;;;;4.65;3.42;;;;;;;21.30;64.01;99664.16;1819931;77;21110;-74
2022/07/31 01:45:29;;;;;;;6.20;3.50;;;;;;;21.27;64.01;99665.47;1811633;78;21578;-75
2022/07/31 01:47:55;;;;;;;3.67;3.22;;;;;;;21.25;63.90;99658.14;1815577;77;21134;-76
2022/07/31 01:50:23;;;;;;;3.85;3.15;;;;;;;21.24;64.00;99655.67;1825912;77;21190;-75
2022/07/31 01:52:50;;;;;;;5.40;3.35;;;;;;;21.21;63.81;99656.44;1816205;77;21043;-74
2022/07/31 01:55:16;;;;;;;3.58;3.15;;;;;;;21.20;63.78;99659.38;1818589;77;21059;-77
2022/07/31 01:57:44;;;;;;;5.20;3.27;;;;;;;21.18;63.70;99661.50;1815353;77;21093;-77
2022/07/31 02:00:12;;;;;;;4.53;3.12;;;;;;;21.16;63.48;99659.57;1818964;78;21102;-74
2022/07/31 02:02:41;;;;;;;6.75;2.58;;;;;;;21.14;63.42;99659.80;1828421;76;21157;-75
2022/07/31 02:05:09;;;;;;;3.85;2.87;;;;;;;21.13;63.28;99658.18;1842860;76;20971;-74
2022/07/31 02:07:39;;;;;;;8.25;2.92;;;;;;;21.13;63.03;99651.94;1817534;77;21517;-72
2022/07/31 02:10:09;;;;;;;3.35;3.02;;;;;;;21.13;63.06;99658.69;1821205;76;21116;-73
2022/07/31 02:12:37;;;;;;;4.12;2.67;;;;;;;21.12;62.88;99659.77;1832750;76;21550;-73
2022/07/31 02:15:06;;;;;;;3.98;3.05;;;;;;;21.11;62.88;99662.16;1819573;77;21124;-76
2022/07/31 02:17:34;;;;;;;3.87;2.67;;;;;;;21.10;62.73;99666.75;1841715;76;21003;-72
2022/07/31 02:20:19;;;;;;;4.97;2.77;;;;;;;21.10;62.62;99668.64;1837521;77;21495;-74
2022/07/31 02:22:47;;;;;;;5.62;3.30;;;;;;;21.09;62.47;99664.28;1823211;76;21049;-75
2022/07/31 02:25:14;;;;;;;3.70;2.90;;;;;;;21.07;62.42;99660.46;1829132;77;21323;-73
2022/07/31 02:27:41;;;;;;;3.67;2.52;;;;;;;21.07;62.36;99669.91;1839850;77;21238;-75
2022/07/31 02:30:10;;;;;;;3.22;2.60;;;;;;;21.08;62.15;99673.46;1843041;77;21046;-72
2022/07/31 02:32:37;;;;;;;5.03;2.75;;;;;;;21.06;61.88;99672.34;1833114;76;21003;-75
2022/07/31 02:35:05;;;;;;;2.83;2.40;;;;;;;21.06;61.75;99675.05;1821755;77;20951;-74
2022/07/31 02:37:34;;;;;;;4.83;2.25;;;;;;;21.04;61.50;99672.30;1806576;77;20979;-74
2022/07/31 02:40:00;;;;;;;4.53;2.40;;;;;;;21.03;61.42;99674.16;1843011;77;21209;-75
2022/07/31 02:42:27;;;;;;;3.10;2.52;;;;;;;21.01;61.41;99675.77;1823072;76;21131;-72
2022/07/31 02:44:54;;;;;;;2.60;2.40;;;;;;;21.00;61.44;99676.81;1832827;76;21001;-74
2022/07/31 02:47:21;;;;;;;2.77;2.08;;;;;;;21.00;61.40;99674.11;1836334;76;21059;-72
2022/07/31 02:49:48;;;;;;;4.37;2.65;;;;;;;20.99;61.39;99675.70;1834275;76;20995;-74
2022/07/31 02:52:15;;;;;;;4.70;2.60;;;;;;;20.97;61.42;99679.98;1832943;76;21526;-75
2022/07/31 02:54:43;;;;;;;6.25;2.58;;;;;;;20.97;61.36;99678.63;1835724;76;20956;-74
2022/07/31 02:57:09;;;;;;;3.37;2.20;;;;;;;20.97;61.12;99683.22;1838572;76;21041;-73
2022/07/31 02:59:37;;;;;;;2.75;2.10;;;;;;;20.96;61.22;99686.98;1825394;77;20997;-73
2022/07/31 03:02:05;;;;;;;3.02;2.58;;;;;;;20.93;61.11;99689.61;1840650;77;21081;-73
2022/07/31 03:04:34;;;;;;;2.58;1.92;;;;;;;20.94;61.06;99682.36;1827805;77;21103;-73
2022/07/31 03:07:01;;;;;;;2.55;1.85;;;;;;;20.92;61.01;99682.59;1837920;76;21019;-73
2022/07/31 03:09:29;;;;;;;3.75;2.42;;;;;;;20.92;60.90;99680.40;1842360;76;21062;-72
2022/07/31 03:11:58;;;;;;;2.30;2.10;;;;;;;20.92;60.90;99692.04;1826891;77;21069;-74
2022/07/31 03:14:25;;;;;;;3.10;2.60;;;;;;;20.90;60.64;99675.26;1843444;76;21010;-73
2022/07/31 03:16:52;;;;;;;2.55;1.82;;;;;;;20.89;60.81;99693.85;1842001;76;21514;-75
2022/07/31 03:19:20;;;;;;;6.42;1.87;;;;;;;20.89;60.61;99688.98;1823296;76;21026;-72
2022/07/31 03:21:47;;;;;;;2.52;2.30;;;;;;;20.88;60.49;99684.63;1841489;76;21038;-73
2022/07/31 03:24:13;;;;;;;3.05;2.10;;;;;;;20.89;60.56;99695.20;1838719;76;21010;-72
2022/07/31 03:26:40;;;;;;;3.12;2.17;;;;;;;20.90;60.40;99691.46;1842708;77;20991;-74
2022/07/31 03:29:07;;;;;;;5.75;1.95;;;;;;;20.92;60.25;99689.84;1827352;76;21127;-73
2022/07/31 03:31:33;;;;;;;2.45;1.80;;;;;;;20.93;60.16;99700.42;1804174;77;21095;-73
2022/07/31 03:34:00;;;;;;;3.37;2.10;;;;;;;20.94;59.95;99698.02;1836642;77;20987;-74
2022/07/31 03:36:28;;;;;;;4.28;2.20;;;;;;;20.96;59.92;99685.10;1814803;76;21071;-73
2022/07/31 03:38:55;;;;;;;4.30;2.72;;;;;;;20.98;59.92;99687.03;1841079;77;21057;-71
2022/07/31 03:41:26;;;;;;;2.62;1.92;;;;;;;21.02;59.64;99684.69;1840117;76;21204;-72
2022/07/31 03:43:53;;;;;;;3.22;2.02;;;;;;;21.05;59.49;99681.48;1835144;77;21014;-74
2022/07/31 03:46:21;;;;;;;3.08;1.65;;;;;;;21.09;59.63;99682.65;1844299;77;20963;-72
2022/07/31 03:48:50;;;;;;;2.17;1.98;;;;;;;21.13;59.46;99684.34;1840058;77;21470;-75
2022/07/31 03:51:16;;;;;;;3.65;2.22;;;;;;;21.16;59.29;99687.94;1827932;76;21067;-74
2022/07/31 03:53:42;;;;;;;2.95;1.90;;;;;;;21.17;59.13;99680.95;1840747;77;21249;-73
2022/07/31 03:56:11;;;;;;;3.22;1.92;;;;;;;21.19;59.02;99675.31;1810534;76;20998;-73
2022/07/31 03:58:37;;;;;;;2.37;1.87;;;;;;;21.23;58.70;99678.33;1843821;77;21162;-72
2022/07/31 04:01:05;;;;;;;2.92;2.00;;;;;;;21.26;58.73;99688.13;1838803;76;21317;-73
2022/07/31 04:03:31;;;;;;;4.67;2.17;;;;;;;21.29;58.47;99679.56;1846442;77;20936;-73
2022/07/31 04:06:12;;;;;;;2.15;1.92;;;;;;;21.33;58.49;99683.95;1838506;77;21096;-73
2022/07/31 04:08:40;;;;;;;2.92;2.10;;;;;;;21.36;58.35;99678.89;1829081;78;20969;-73
2022/07/31 04:11:07;;;;;;;6.28;2.37;;;;;;;21.41;58.39;99680.33;1824865;77;21003;-74
2022/07/31 04:13:35;;;;;;;5.65;2.10;;;;;;;21.48;58.26;99682.09;1821104;77;21007;-73
2022/07/31 04:16:02;;;;;;;4.80;2.12;;;;;;;21.52;58.20;99667.88;1834929;78;21151;-74
2022/07/31 04:18:29;;;;;;;4.97;2.20;;;;;;;21.59;58.22;99671.25;1816265;78;21122;-73
2022/07/31 04:20:55;;;;;;;5.55;2.05;;;;;;;21.67;57.99;99669.20;1819232;77;21000;-74
2022/07/31 04:23:22;;;;;;;2.37;1.80;;;;;;;21.73;57.95;99670.92;1816625;77;21373;-74
2022/07/31 04:26:07;;;;;;;3.92;2.00;;;;;;;21.79;57.88;99677.55;1748189;81;21081;-74
2022/07/31 04:28:38;;;;;;;4.00;2.15;;;;;;;21.87;57.88;99674.98;1822609;77;21009;-72
2022/07/31 04:31:04;;;;;;;2.90;2.40;;;;;;;21.94;57.55;99680.22;1822223;77;21205;-70
2022/07/31 04:33:33;;;;;;;3.90;2.17;;;;;;;21.97;57.49;99667.57;1805043;77;21082;-75
2022/07/31 04:36:00;;;;;;;2.45;2.08;;;;;;;21.97;57.60;99677.84;1809321;77;21112;-74
2022/07/31 04:38:28;;;;;;;9.10;2.10;;;;;;;22.02;57.49;99674.94;1830773;77;21016;-73
2022/07/31 04:40:55;;;;;;;2.80;2.47;;;;;;;22.07;57.59;99679.91;1820125;78;21074;-74
2022/07/31 04:43:22;;;;;;;5.80;2.40;;;;;;;22.13;57.54;99685.67;1836079;78;21708;-74
2022/07/31 04:45:49;;;;;;;3.33;2.00;;;;;;;22.15;57.28;99686.25;1805960;78;21074;-71
2022/07/31 04:48:15;;;;;;;2.22;1.85;;;;;;;22.15;57.21;99688.95;1836010;78;20967;-71
2022/07/31 04:50:42;;;;;;;3.58;2.30;;;;;;;22.11;57.32;99686.45;1778113;80;21009;-72
2022/07/31 04:53:09;;;;;;;3.87;1.80;;;;;;;22.09;57.39;99687.23;1818144;78;21070;-72
2022/07/31 04:55:38;;;;;;;3.33;2.10;;;;;;;22.08;57.33;99689.67;1812530;78;21075;-74
2022/07/31 04:58:05;;;;;;;3.12;2.40;;;;;;;22.08;57.59;99699.14;1816044;78;21023;-76
2022/07/31 05:00:32;;;;;;;4.20;2.08;;;;;;;22.09;57.70;99693.19;1827779;78;20996;-76
2022/07/31 05:02:59;;;;;;;3.95;2.33;;;;;;;22.10;57.78;99688.08;1829910;78;21039;-77
2022/07/31 05:05:25;;;;;;;5.20;2.30;;;;;;;22.12;58.09;99683.24;1823121;77;21008;-74
2022/07/31 05:07:52;;;;;;;3.10;2.20;;;;;;;22.15;57.98;99684.90;1805599;78;21132;-76
2022/07/31 05:13:06;;;;;;;2.80;2.45;;;;;;;22.25;58.06;99686.16;1762314;80;21532;-76
2022/07/31 05:15:33;;;;;;;5.03;2.30;;;;;;;22.19;58.04;99659.53;1811395;78;21059;-75
2022/07/31 05:17:59;;;;;;;2.95;2.67;;;;;;;22.37;58.04;99678.26;1819631;78;21153;-73
2022/07/31 05:20:28;;;;;;;3.55;2.15;;;;;;;22.47;57.83;99676.78;1802835;78;21160;-73
2022/07/31 05:23:00;;;;;;;4.67;2.27;;;;;;;22.54;57.56;99670.63;1814256;78;21535;-73
2022/07/31 05:25:31;;;;;;;4.15;2.35;;;;;;;22.60;57.42;99671.53;1798715;78;21098;-70
2022/07/31 05:27:58;;;;;;;3.60;1.98;;;;;;;22.64;57.15;99667.25;1819789;78;21877;-74
2022/07/31 05:30:24;;;;;;;2.87;2.10;;;;;;;22.69;57.44;99665.98;1820619;78;21016;-73
2022/07/31 05:32:52;;;;;;;3.60;2.37;;;;;;;22.77;57.49;99672.31;1745231;81;21282;-73
2022/07/31 05:35:18;;;;;;;3.20;2.58;;;;;;;22.87;57.30;99677.89;1808846;78;21027;-74
2022/07/31 05:37:45;;;;;;;4.42;2.60;;;;;;;22.99;57.33;99669.64;1820811;78;21126;-74
2022/07/31 05:40:12;;;;;;;5.90;2.30;;;;;;;23.09;56.89;99678.45;1804668;78;21074;-73
2022/07/31 05:42:56;;;;;;;7.80;2.50;;;;;;;23.20;56.54;99668.03;1796871;78;21674;-72
2022/07/31 05:45:25;;;;;;;5.00;2.27;;;;;;;23.26;56.27;99688.69;1808297;78;21215;-70
2022/07/31 05:47:52;;;;;;;3.65;2.42;;;;;;;23.28;56.19;99677.06;1804110;78;20991;-74
2022/07/31 05:50:18;;;;;;;3.65;2.60;;;;;;;23.32;56.43;99680.90;1777383;80;21069;-74
2022/07/31 05:52:45;;;;;;;5.97;2.85;;;;;;;23.34;56.50;99681.45;1814290;78;21610;-75
2022/07/31 05:55:26;;;;;;;4.67;2.52;;;;;;;23.40;56.43;99680.17;1716705;79;21069;-73
2022/07/31 05:58:11;;;;;;;3.20;2.12;;;;;;;23.44;56.54;99679.94;1794920;79;21847;-75
2022/07/31 06:00:38;;;;;;;3.98;2.65;;;;;;;23.51;56.32;99688.16;1806776;78;21021;-74
2022/07/31 06:03:05;;;;;;;6.20;2.52;;;;;;;23.54;56.11;99680.05;1819944;78;21044;-73
2022/07/31 06:05:43;;;;;;;4.05;2.67;;;;;;;23.56;55.97;99687.38;1831580;76;21001;-72
2022/07/31 06:08:11;;;;;;;2.65;1.90;;;;;;;23.63;55.43;99681.77;1809331;77;21408;-72
2022/07/31 06:10:39;;;;;;;4.80;2.40;;;;;;;23.68;55.34;99677.73;1840267;76;21205;-73
2022/07/31 06:13:06;;;;;;;3.70;2.30;;;;;;;23.74;55.03;99681.61;1826420;77;21014;-71
2022/07/31 06:15:32;;;;;;;2.80;2.20;;;;;;;23.77;54.97;99673.49;1834194;77;21020;-71
2022/07/31 06:17:59;;;;;;;3.52;2.17;;;;;;;23.83;54.86;99677.91;1818416;77;20990;-74
2022/07/31 06:20:28;;;;;;;10.53;3.17;;;;;;;23.89;54.77;99681.49;1835252;76;22355;-75
2022/07/31 06:22:54;;;;;;;7.10;2.58;;;;;;;23.90;54.13;99674.46;1840631;76;21260;-73
2022/07/31 06:25:21;;;;;;;4.47;2.50;;;;;;;23.89;54.30;99677.42;1837349;77;21046;-75
2022/07/31 06:27:49;;;;;;;3.05;2.00;;;;;;;23.90;54.41;99677.72;1823181;76;21988;-75
2022/07/31 06:30:15;;;;;;;3.20;2.55;;;;;;;23.89;54.19;99672.84;1819847;76;21014;-71
2022/07/31 06:32:42;;;;;;;5.40;2.52;;;;;;;23.90;54.38;99669.58;1832174;77;20983;-74
2022/07/31 06:35:09;;;;;;;2.35;2.15;;;;;;;23.96;54.48;99671.26;1802575;77;21270;-75
2022/07/31 06:37:37;;;;;;;2.55;2.33;;;;;;;24.02;53.79;99666.15;1833518;76;21102;-73
2022/07/31 06:40:05;;;;;;;3.92;2.60;;;;;;;24.10;53.83;99660.78;1837229;77;20986;-74
2022/07/31 06:42:38;;;;;;;4.47;2.22;;;;;;;24.17;53.79;99657.32;1828552;77;20967;-72
2022/07/31 06:45:06;;;;;;;3.98;2.00;;;;;;;24.26;53.36;99657.64;1839386;76;22010;-73
2022/07/31 06:47:51;;;;;;;2.58;2.10;;;;;;;24.31;53.48;99655.78;1842277;76;21117;-72
2022/07/31 06:50:19;;;;;;;5.80;2.20;;;;;;;24.41;53.62;99646.89;1840819;76;21078;-73
2022/07/31 06:52:56;;;;;;;3.05;2.25;;;;;;;24.48;53.72;99642.05;1795521;77;21003;-72
2022/07/31 06:55:23;;;;;;;4.22;2.42;;;;;;;24.63;53.98;99639.20;1827873;76;21046;-73
2022/07/31 06:57:50;;;;;;;4.20;2.30;;;;;;;24.75;52.97;99637.63;1841659;76;21115;-73
2022/07/31 07:00:17;;;;;;;3.55;2.33;;;;;;;24.82;52.58;99647.16;1827105;76;21133;-71
2022/07/31 07:02:43;;;;;;;3.20;2.10;;;;;;;24.86;52.66;99632.48;1839850;76;21205;-73
2022/07/31 07:05:10;;;;;;;5.70;2.35;;;;;;;24.88;52.68;99639.31;1825497;76;20979;-74
2022/07/31 07:07:37;;;;;;;2.90;2.25;;;;;;;24.90;52.54;99635.78;1837128;77;21038;-75
2022/07/31 07:10:05;;;;;;;4.67;2.12;;;;;;;24.95;52.44;99624.66;1813558;77;20964;-73
2022/07/31 07:12:46;;;;;;;3.08;2.52;;;;;;;25.02;51.90;99630.67;1792322;77;21259;-75
2022/07/31 07:15:13;;;;;;;4.00;3.17;;;;;;;25.08;51.77;99632.31;1829922;76;21092;-76
2022/07/31 07:17:40;;;;;;;6.20;2.30;;;;;;;25.09;51.56;99632.58;1823093;76;21010;-76
2022/07/31 07:20:10;;;;;;;4.78;2.00;;;;;;;25.06;51.01;99634.48;1825858;76;21029;-74
2022/07/31 07:22:37;;;;;;;3.72;2.22;;;;;;;25.06;51.35;99629.86;1840979;76;20999;-74
2022/07/31 07:25:06;;;;;;;3.15;2.30;;;;;;;25.09;50.82;99629.86;1826181;76;21180;-72
2022/07/31 07:27:34;;;;;;;5.22;3.20;;;;;;;25.12;50.90;99621.98;1838157;76;20990;-75
2022/07/31 07:30:01;;;;;;;2.22;2.02;;;;;;;25.18;50.68;99636.42;1811698;77;21612;-75
2022/07/31 07:32:28;;;;;;;4.15;2.45;;;;;;;25.26;50.25;99638.64;1830074;76;21008;-76
2022/07/31 07:34:54;;;;;;;3.60;2.30;;;;;;;25.28;50.23;99628.34;1832398;76;21530;-74
2022/07/31 07:37:23;;;;;;;4.28;2.40;;;;;;;25.31;50.41;99618.27;1831521;76;21146;-76
2022/07/31 07:39:50;;;;;;;4.65;2.22;;;;;;;25.36;50.24;99624.25;1830685;76;21033;-75
2022/07/31 07:42:16;;;;;;;4.40;2.50;;;;;;;25.40;50.31;99623.17;1840643;77;20964;-79
2022/07/31 07:44:43;;;;;;;2.70;2.00;;;;;;;25.47;49.94;99621.02;1837629;76;21490;-76
2022/07/31 07:47:10;;;;;;;6.05;2.10;;;;;;;25.51;49.42;99634.34;1844703;76;21066;-74
2022/07/31 07:49:36;;;;;;;4.90;2.17;;;;;;;25.54;48.68;99639.26;1839209;76;21240;-74
2022/07/31 07:52:11;;;;;;;3.15;2.10;;;;;;;25.53;48.72;99617.77;1779364;77;21061;-75
2022/07/31 07:54:37;;;;;;;4.87;2.17;;;;;;;25.53;48.99;99636.25;1821922;77;21002;-74
2022/07/31 07:57:22;;;;;;;3.12;2.83;;;;;;;25.55;48.54;99627.28;1839700;77;21297;-74
2022/07/31 07:59:54;;;;;;;5.60;2.20;;;;;;;25.58;48.67;99624.59;1771975;76;21039;-74
2022/07/31 08:02:40;;;;;;;3.92;1.80;;;;;;;25.61;49.00;99611.27;1833981;76;21173;-75
2022/07/31 08:05:07;;;;;;;4.50;2.17;;;;;;;25.67;49.16;99621.05;1838825;75;21008;-76
2022/07/31 08:07:38;;;;;;;5.28;2.27;;;;;;;25.72;49.26;99624.86;1849696;75;21026;-77
2022/07/31 08:10:08;;;;;;;2.98;2.30;;;;;;;25.76;49.39;99619.95;1853466;75;21024;-76
2022/07/31 08:12:36;;;;;;;2.87;2.37;;;;;;;25.80;49.51;99624.31;1841332;75;21019;-76
2022/07/31 08:15:08;;;;;;;4.53;2.02;;;;;;;25.84;49.69;99627.56;1827808;76;21172;-75
2022/07/31 08:17:42;;;;;;;3.33;2.12;;;;;;;25.85;49.44;99618.88;1814212;76;21988;-76
2022/07/31 08:20:09;;;;;;;4.40;2.30;;;;;;;25.83;49.68;99611.54;1852429;77;21486;-76
2022/07/31 08:22:36;;;;;;;3.22;2.10;;;;;;;25.87;50.05;99608.55;1828428;77;21026;-76
2022/07/31 08:25:03;;;;;;;4.00;2.00;;;;;;;25.99;50.26;99606.93;1850618;75;21007;-74
2022/07/31 08:27:30;;;;;;;3.70;2.37;;;;;;;26.16;49.39;99617.54;1827620;75;21135;-73
2022/07/31 08:29:59;;;;;;;2.40;2.20;;;;;;;26.25;49.11;99599.53;1842899;77;21023;-75
2022/07/31 08:32:26;;;;;;;2.33;2.08;;;;;;;26.32;48.87;99591.89;1845085;75;21451;-76
2022/07/31 08:34:54;;;;;;;5.50;2.62;;;;;;;26.41;49.00;99600.33;1817629;75;21948;-77
2022/07/31 08:37:22;;;;;;;4.28;2.20;;;;;;;26.57;49.06;99594.28;1842802;75;22025;-74
2022/07/31 08:39:49;;;;;;;3.55;2.02;;;;;;;26.80;48.69;99584.69;1841208;75;22242;-75
2022/07/31 08:42:16;;;;;;;5.62;2.40;;;;;;;27.06;48.25;99593.54;1834018;75;21019;-77
2022/07/31 08:44:43;;;;;;;3.00;2.05;;;;;;;27.25;47.61;99585.03;1839238;75;21530;-75
2022/07/31 08:47:13;;;;;;;4.47;2.20;;;;;;;27.39;47.56;99583.01;1850327;77;21452;-74
2022/07/31 08:49:44;;;;;;;3.00;2.45;;;;;;;27.46;47.51;99593.06;1849831;77;22011;-76
2022/07/31 08:52:18;;;;;;;2.92;2.60;;;;;;;27.55;47.54;99587.27;1852810;76;21182;-76
2022/07/31 08:54:58;;;;;;;3.25;2.10;;;;;;;27.70;46.91;99581.41;1792051;78;21020;-76
2022/07/31 08:57:25;;;;;;;5.70;2.35;;;;;;;27.82;46.79;99575.05;1843213;77;21029;-76
2022/07/31 08:59:53;;;;;;;4.25;2.22;;;;;;;28.01;46.33;99584.17;1850880;77;21061;-74
2022/07/31 09:02:20;;;;;;;2.70;1.87;;;;;;;28.21;45.57;99581.78;1840278;77;21005;-74
2022/07/31 09:05:06;;;;;;;4.08;2.08;;;;;;;28.35;44.90;99572.91;1838340;75;21215;-75
2022/07/31 09:07:33;;;;;;;4.12;2.22;;;;;;;28.52;44.52;99555.52;1805452;78;21028;-75
2022/07/31 09:10:04;;;;;;;3.52;2.27;;;;;;;28.77;43.81;99551.65;1789087;80;21012;-77
2022/07/31 09:12:32;;;;;;;2.80;2.52;;;;;;;29.06;43.75;99562.21;1814031;77;21075;-78
2022/07/31 09:15:21;;;;;;;2.62;2.27;;;;;;;29.40;42.91;99549.13;1802212;77;20993;-77
2022/07/31 09:17:49;;;;;;;4.20;2.40;;;;;;;29.68;41.91;99557.99;1815036;77;21174;-78
2022/07/31 09:20:19;;;;;;;4.37;2.10;;;;;;;29.87;40.88;99553.87;1812859;77;21017;-77
2022/07/31 09:22:45;;;;;;;2.05;1.70;;;;;;;30.05;40.91;99554.91;1814349;78;21104;-77
2022/07/31 09:25:17;;;;;;;4.58;2.42;;;;;;;30.36;40.38;99542.82;1777694;78;21091;-77
2022/07/31 09:27:45;;;;;;;3.72;2.10;;;;;;;30.77;39.87;99540.59;1808897;78;21030;-75
2022/07/31 09:30:13;;;;;;;2.83;2.20;;;;;;;31.27;39.14;99537.03;1801740;78;21117;-77
2022/07/31 09:33:16;;;;;;;3.10;2.33;;;;;;;31.83;37.81;99541.13;1798202;77;21103;-75
2022/07/31 09:35:54;;;;;;;5.30;2.45;;;;;;;32.46;36.79;99529.54;1733417;81;21576;-76
2022/07/31 09:38:22;;;;;;;2.98;2.30;;;;;;;33.06;35.86;99534.91;1808184;78;21034;-76
2022/07/31 09:41:17;;;;;;;3.62;2.30;;;;;;;33.51;35.63;99536.52;1728750;79;21027;-75
2022/07/31 09:44:01;;;;;;;4.97;2.45;;;;;;;34.08;35.56;99542.32;1751087;81;21111;-75
2022/07/31 09:46:39;;;;;;;3.45;2.40;;;;;;;34.58;34.92;99541.61;1787027;79;21118;-75
2022/07/31 09:49:06;;;;;;;8.20;2.40;;;;;;;34.99;33.65;99551.66;1820243;78;21114;-77
2022/07/31 09:51:41;;;;;;;2.90;2.40;;;;;;;35.23;32.60;99539.41;1822609;78;21578;-75
2022/07/31 09:54:20;;;;;;;7.95;2.50;;;;;;;35.38;32.67;99536.56;1809079;78;21060;-75
2022/07/31 09:57:14;;;;;;;4.17;2.30;;;;;;;35.67;31.83;99523.80;1819563;78;21269;-77
2022/07/31 09:59:43;;;;;;;4.50;2.17;;;;;;;35.97;31.46;99515.34;1794390;78;21081;-75
2022/07/31 10:02:10;;;;;;;6.12;2.52;;;;;;;36.35;31.06;99520.53;1821635;77;21060;-77
2022/07/31 10:04:38;;;;;;;4.72;2.55;;;;;;;36.75;30.89;99523.17;1812960;77;21043;-75
2022/07/31 10:07:06;;;;;;;4.70;3.45;;;;;;;37.16;30.98;99517.06;1823342;77;21012;-74
2022/07/31 10:09:36;;;;;;;2.77;2.30;;;;;;;37.62;30.06;99512.02;1827433;78;21581;-75
2022/07/31 10:12:13;;;;;;;4.42;2.35;;;;;;;37.94;29.03;99517.00;1810390;76;21051;-77
2022/07/31 10:14:42;;;;;;;5.22;2.42;;;;;;;38.14;28.98;99505.42;1819418;77;21012;-74
2022/07/31 10:17:09;;;;;;;3.15;2.40;;;;;;;38.24;28.80;99503.27;1747730;81;21076;-78
2022/07/31 10:19:59;;;;;;;2.42;2.22;;;;;;;38.37;28.26;99510.91;1813723;78;21060;-77
2022/07/31 10:22:46;;;;;;;5.97;2.45;;;;;;;38.35;28.61;99509.29;1823461;78;21048;-79
2022/07/31 10:25:28;;;;;;;4.20;2.55;;;;;;;38.30;28.79;99502.62;1794227;78;21106;-76
2022/07/31 10:27:58;;;;;;;3.08;2.20;;;;;;;38.21;28.59;99496.48;1823941;78;21291;-77
2022/07/31 10:30:25;;;;;;;2.33;1.87;;;;;;;38.23;28.93;99492.77;1824297;78;21208;-74
2022/07/31 10:32:54;;;;;;;7.40;2.75;;;;;;;38.43;28.70;99488.06;1823376;77;21004;-74
2022/07/31 10:35:27;;;;;;;2.55;2.35;;;;;;;38.69;28.09;99504.14;1822801;78;21129;-79
2022/07/31 10:38:31;;;;;;;3.62;2.20;;;;;;;38.74;28.36;99496.09;1813418;78;21036;-76
2022/07/31 10:41:32;;;;;;;2.27;2.10;;;;;;;38.72;28.63;99493.68;1813704;78;21083;-74
2022/07/31 10:44:06;;;;;;;2.58;2.37;;;;;;;38.85;28.23;99484.64;1827049;77;21333;-76
2022/07/31 10:46:51;;;;;;;3.25;2.25;;;;;;;39.09;28.34;99491.09;1783626;80;21123;-80
2022/07/31 10:49:41;;;;;;;2.77;2.58;;;;;;;39.49;27.92;99485.72;1799941;78;21106;-77
2022/07/31 10:52:28;;;;;;;6.20;2.87;;;;;;;39.73;27.72;99489.30;1810007;78;21565;-79
2022/07/31 10:55:04;;;;;;;2.58;2.37;;;;;;;39.93;27.43;99499.78;1795588;78;21032;-78
2022/07/31 10:57:36;;;;;;;3.85;2.55;;;;;;;39.92;27.19;99494.02;1801107;79;21013;-79
2022/07/31 11:00:19;;;;;;;2.80;2.55;;;;;;;39.84;27.22;99488.30;1772837;78;21037;-81
2022/07/31 11:03:20;;;;;;;5.92;2.35;;;;;;;39.74;27.61;99483.37;1760571;80;21517;-80
2022/07/31 11:06:05;;;;;;;2.92;2.20;;;;;;;39.66;28.00;99470.54;1775234;77;21054;-80
2022/07/31 11:08:50;;;;;;;2.72;2.30;;;;;;;39.66;28.03;99469.16;1763468;77;21030;-79
2022/07/31 11:11:32;;;;;;;6.72;2.40;;;;;;;39.63;28.24;99459.55;1766060;79;21495;-79
2022/07/31 11:14:08;;;;;;;2.60;2.15;;;;;;;39.71;28.01;99478.55;1774909;79;21068;-79
2022/07/31 11:16:36;;;;;;;3.08;2.87;;;;;;;39.67;28.15;99463.79;1773351;79;21079;-79
2022/07/31 11:21:40;;;;;;;4.10;2.50;;;;;;;39.94;28.54;99449.36;1856998;76;22546;-76
2022/07/31 11:24:22;;;;;;;2.95;2.52;;;;;;;40.10;28.43;99451.41;1834060;77;21006;-78
2022/07/31 11:26:52;;;;;;;;;;;;;;;40.33;28.32;99456.72;1847786;77;21385;-78
2022/07/31 11:29:28;;;;;;;5.17;3.08;;;;;;;40.48;28.09;99442.61;1843519;77;20424;-75
2022/07/31 11:32:07;;;;;;;3.00;2.75;;;;;;;40.52;28.09;99445.44;1832959;77;21045;-74
2022/07/31 11:34:56;;;;;;;9.38;3.27;;;;;;;40.62;28.00;99439.80;1826453;77;20989;-78
2022/07/31 11:37:23;;;;;;;4.03;2.42;;;;;;;40.76;28.53;99433.06;1837564;77;22094;-77
2022/07/31 11:39:51;;;;;;;3.20;2.90;;;;;;;41.06;28.21;99436.36;1856789;77;21765;-77
2022/07/31 11:42:19;;;;;;;3.95;2.90;;;;;;;41.29;27.88;99433.44;1838680;77;20981;-78
2022/07/31 11:44:45;;;;;;;3.65;2.70;;;;;;;41.48;27.49;99442.78;1820067;77;21100;-76
2022/07/31 11:47:12;;;;;;;2.95;2.62;;;;;;;41.50;27.59;99439.81;1837674;77;21001;-77
2022/07/31 11:49:39;;;;;;;4.12;3.00;;;;;;;41.65;27.45;99431.02;1814289;77;21006;-76
2022/07/31 11:52:08;;;;;;;5.92;2.62;;;;;;;41.78;27.52;99423.13;1854443;76;21168;-79
2022/07/31 11:54:35;;;;;;;2.75;2.50;;;;;;;42.03;27.45;99419.11;1826205;77;21008;-75